Accueil
METAR-TAF:

METAR-TAF

Aéroports :

Aéroport international de Coni

Coni, Italie

latitude: 44-32-47N, longitude: 007-37-20E, altitude: 386 m

Observation

Le bulletin a été fait il y a 27 minutes, à 05:20 UTC
Vent 4 kt de sud-ouest
Température -3°C
Humidité 86%
Pression 1030 hPa
Visibilité 10 km ou plus

METAR: LIMZ 240520Z AUTO 23004KT 9999 NCD M03/M05 Q1030

Heure: 06:47 (05:47 UTC)

Prévision

Le bulletin a été fait il y a 47 minutes, à 05:00 UTC
Prévision valable du 24 à 06 UTC au 25 à 06 UTC
Vent 5 kt de direction variable
Visibilité: 6000 m
Evoluant progressivement
du 24 à 18 UTC au 24 à 20 UTC
Visibilité: 0500 m
brouillard givrant

TAF: LIMZ 240500Z 2406/2506 VRB05KT 6000 NSC BECMG 2418/2420 0500 FZFG

Observations et prévisions météorologiques de plus de 4000 aéroports (messages METAR et TAF).

Les stations disponibles sont représentées par des disques jaunes et rouges sur la carte.

Passer la souris dessus pour voir le nom de la station.

Cliquer dessus pour voir les observations et prévisions météorologiques.

Pour changer de carte: cliquez sur les boutons verts avec une croix noire pour zoomer, sur le bouton vert avec un tiret pour effectuer un zoom arrière, ou sur les flèches vertes pour les cartes adjacentes.


METAR-TAF: